sensor_id;sensor_type;location;lat;lon;timestamp;temperature;humidity
56162;DHT22;42045;52.986;6.014;2022-12-07T00:01:16;3.00;99.90
56162;DHT22;42045;52.986;6.014;2022-12-07T00:03:44;3.00;99.90
56162;DHT22;42045;52.986;6.014;2022-12-07T00:06:12;3.00;99.90
56162;DHT22;42045;52.986;6.014;2022-12-07T00:08:38;2.90;99.90
56162;DHT22;42045;52.986;6.014;2022-12-07T00:11:13;2.90;99.90
56162;DHT22;42045;52.986;6.014;2022-12-07T00:13:40;2.90;99.90
56162;DHT22;42045;52.986;6.014;2022-12-07T00:16:09;2.90;99.90
56162;DHT22;42045;52.986;6.014;2022-12-07T00:18:35;2.90;99.90
56162;DHT22;42045;52.986;6.014;2022-12-07T00:21:05;3.00;99.90
56162;DHT22;42045;52.986;6.014;2022-12-07T00:23:32;3.00;99.90
56162;DHT22;42045;52.986;6.014;2022-12-07T00:26:04;2.90;99.90
56162;DHT22;42045;52.986;6.014;2022-12-07T00:28:29;3.10;99.90
56162;DHT22;42045;52.986;6.014;2022-12-07T00:31:07;3.00;99.90
56162;DHT22;42045;52.986;6.014;2022-12-07T00:33:33;3.00;99.90
56162;DHT22;42045;52.986;6.014;2022-12-07T00:36:00;3.00;99.90
56162;DHT22;42045;52.986;6.014;2022-12-07T00:38:29;3.00;99.90
56162;DHT22;42045;52.986;6.014;2022-12-07T00:41:00;3.10;99.90
56162;DHT22;42045;52.986;6.014;2022-12-07T00:43:26;3.10;99.90
56162;DHT22;42045;52.986;6.014;2022-12-07T00:45:53;3.10;99.90
56162;DHT22;42045;52.986;6.014;2022-12-07T00:48:19;3.10;99.90
56162;DHT22;42045;52.986;6.014;2022-12-07T00:50:45;3.20;99.90
56162;DHT22;42045;52.986;6.014;2022-12-07T00:53:11;3.20;99.90
56162;DHT22;42045;52.986;6.014;2022-12-07T00:55:36;3.10;99.90
56162;DHT22;42045;52.986;6.014;2022-12-07T00:58:02;3.20;99.90
56162;DHT22;42045;52.986;6.014;2022-12-07T01:00:28;3.20;99.90
56162;DHT22;42045;52.986;6.014;2022-12-07T01:02:54;3.20;99.90
56162;DHT22;42045;52.986;6.014;2022-12-07T01:05:20;3.20;99.90
56162;DHT22;42045;52.986;6.014;2022-12-07T01:07:46;3.20;99.90
56162;DHT22;42045;52.986;6.014;2022-12-07T01:10:13;3.20;99.90
56162;DHT22;42045;52.986;6.014;2022-12-07T01:12:39;3.30;99.90
56162;DHT22;42045;52.986;6.014;2022-12-07T01:15:05;3.30;99.90
56162;DHT22;42045;52.986;6.014;2022-12-07T01:17:31;3.40;99.90
56162;DHT22;42045;52.986;6.014;2022-12-07T01:19:57;3.40;99.90
56162;DHT22;42045;52.986;6.014;2022-12-07T01:22:22;3.30;99.90
56162;DHT22;42045;52.986;6.014;2022-12-07T01:24:48;3.40;99.90
56162;DHT22;42045;52.986;6.014;2022-12-07T01:27:14;3.40;99.90
56162;DHT22;42045;52.986;6.014;2022-12-07T01:29:39;3.30;99.90
56162;DHT22;42045;52.986;6.014;2022-12-07T01:32:05;3.30;99.90
56162;DHT22;42045;52.986;6.014;2022-12-07T01:34:31;3.20;99.90
56162;DHT22;42045;52.986;6.014;2022-12-07T01:36:57;3.20;99.90
56162;DHT22;42045;52.986;6.014;2022-12-07T01:39:23;3.10;99.90
56162;DHT22;42045;52.986;6.014;2022-12-07T01:41:50;3.00;99.90
56162;DHT22;42045;52.986;6.014;2022-12-07T01:49:21;3.00;99.90
56162;DHT22;42045;52.986;6.014;2022-12-07T01:51:49;3.10;99.90
56162;DHT22;42045;52.986;6.014;2022-12-07T01:54:17;3.10;99.90
56162;DHT22;42045;52.986;6.014;2022-12-07T01:56:50;3.20;99.90
56162;DHT22;42045;52.986;6.014;2022-12-07T01:59:18;3.20;99.90
56162;DHT22;42045;52.986;6.014;2022-12-07T02:01:45;3.20;99.90
56162;DHT22;42045;52.986;6.014;2022-12-07T02:04:11;3.20;99.90
56162;DHT22;42045;52.986;6.014;2022-12-07T02:06:37;3.20;99.90
56162;DHT22;42045;52.986;6.014;2022-12-07T02:09:04;3.20;99.90
56162;DHT22;42045;52.986;6.014;2022-12-07T02:11:29;3.10;99.90
56162;DHT22;42045;52.986;6.014;2022-12-07T02:13:56;3.10;99.90
56162;DHT22;42045;52.986;6.014;2022-12-07T02:16:31;3.10;99.90
56162;DHT22;42045;52.986;6.014;2022-12-07T02:21:45;3.20;99.90
56162;DHT22;42045;52.986;6.014;2022-12-07T02:29:47;3.40;99.90
56162;DHT22;42045;52.986;6.014;2022-12-07T02:35:22;3.50;99.90
56162;DHT22;42045;52.986;6.014;2022-12-07T02:38:13;3.40;99.90
56162;DHT22;42045;52.986;6.014;2022-12-07T02:41:02;3.40;99.90
56162;DHT22;42045;52.986;6.014;2022-12-07T02:43:41;3.40;99.90
56162;DHT22;42045;52.986;6.014;2022-12-07T02:46:11;3.40;99.90
56162;DHT22;42045;52.986;6.014;2022-12-07T02:48:40;3.40;99.90
56162;DHT22;42045;52.986;6.014;2022-12-07T02:51:06;3.40;99.90
56162;DHT22;42045;52.986;6.014;2022-12-07T02:53:37;3.40;99.90
56162;DHT22;42045;52.986;6.014;2022-12-07T03:04:30;3.40;99.90
56162;DHT22;42045;52.986;6.014;2022-12-07T03:07:28;3.40;99.90
56162;DHT22;42045;52.986;6.014;2022-12-07T03:16:18;3.30;99.90
56162;DHT22;42045;52.986;6.014;2022-12-07T03:21:52;3.30;99.90
56162;DHT22;42045;52.986;6.014;2022-12-07T03:24:22;3.30;99.90
56162;DHT22;42045;52.986;6.014;2022-12-07T03:26:58;3.30;99.90
56162;DHT22;42045;52.986;6.014;2022-12-07T03:29:34;3.20;99.90
56162;DHT22;42045;52.986;6.014;2022-12-07T03:32:25;3.10;99.90
56162;DHT22;42045;52.986;6.014;2022-12-07T03:34:58;3.10;99.90
56162;DHT22;42045;52.986;6.014;2022-12-07T03:37:33;3.00;99.90
56162;DHT22;42045;52.986;6.014;2022-12-07T03:42:29;3.00;99.90
56162;DHT22;42045;52.986;6.014;2022-12-07T03:44:56;2.90;99.90
56162;DHT22;42045;52.986;6.014;2022-12-07T03:49:58;2.90;99.90
56162;DHT22;42045;52.986;6.014;2022-12-07T03:52:32;2.90;99.90
56162;DHT22;42045;52.986;6.014;2022-12-07T03:55:22;2.90;99.90
56162;DHT22;42045;52.986;6.014;2022-12-07T03:57:53;2.90;99.90
56162;DHT22;42045;52.986;6.014;2022-12-07T04:00:19;3.00;99.90
56162;DHT22;42045;52.986;6.014;2022-12-07T04:02:45;3.00;99.90
56162;DHT22;42045;52.986;6.014;2022-12-07T04:05:11;2.90;99.90
56162;DHT22;42045;52.986;6.014;2022-12-07T04:07:37;2.90;99.90
56162;DHT22;42045;52.986;6.014;2022-12-07T04:10:03;2.90;99.90
56162;DHT22;42045;52.986;6.014;2022-12-07T04:12:29;2.90;99.90
56162;DHT22;42045;52.986;6.014;2022-12-07T04:14:55;2.90;99.90
56162;DHT22;42045;52.986;6.014;2022-12-07T04:17:21;2.90;99.90
56162;DHT22;42045;52.986;6.014;2022-12-07T04:19:46;2.90;99.90
56162;DHT22;42045;52.986;6.014;2022-12-07T04:22:12;2.90;99.90
56162;DHT22;42045;52.986;6.014;2022-12-07T04:24:38;2.80;99.90
56162;DHT22;42045;52.986;6.014;2022-12-07T04:27:04;2.80;99.90
56162;DHT22;42045;52.986;6.014;2022-12-07T04:29:30;2.80;99.90
56162;DHT22;42045;52.986;6.014;2022-12-07T04:31:55;2.70;99.90
56162;DHT22;42045;52.986;6.014;2022-12-07T04:34:21;2.70;99.90
56162;DHT22;42045;52.986;6.014;2022-12-07T04:36:47;2.70;99.90
56162;DHT22;42045;52.986;6.014;2022-12-07T04:39:22;2.60;99.90
56162;DHT22;42045;52.986;6.014;2022-12-07T04:41:48;2.60;99.90
56162;DHT22;42045;52.986;6.014;2022-12-07T04:44:14;2.50;99.90
56162;DHT22;42045;52.986;6.014;2022-12-07T04:46:41;2.50;99.90
56162;DHT22;42045;52.986;6.014;2022-12-07T04:49:07;2.40;99.90
56162;DHT22;42045;52.986;6.014;2022-12-07T04:51:32;2.40;99.90
56162;DHT22;42045;52.986;6.014;2022-12-07T04:53:58;2.30;99.90
56162;DHT22;42045;52.986;6.014;2022-12-07T04:56:24;2.20;99.90
56162;DHT22;42045;52.986;6.014;2022-12-07T04:58:52;2.20;99.90
56162;DHT22;42045;52.986;6.014;2022-12-07T05:01:18;2.10;99.90
56162;DHT22;42045;52.986;6.014;2022-12-07T05:03:45;2.10;99.90
56162;DHT22;42045;52.986;6.014;2022-12-07T05:06:11;2.10;99.90
56162;DHT22;42045;52.986;6.014;2022-12-07T05:08:37;2.10;99.90
56162;DHT22;42045;52.986;6.014;2022-12-07T05:11:04;2.10;99.90
56162;DHT22;42045;52.986;6.014;2022-12-07T05:13:32;2.10;99.90
56162;DHT22;42045;52.986;6.014;2022-12-07T05:15:57;2.10;99.90
56162;DHT22;42045;52.986;6.014;2022-12-07T05:18:24;2.10;99.90
56162;DHT22;42045;52.986;6.014;2022-12-07T05:20:50;2.20;99.90
56162;DHT22;42045;52.986;6.014;2022-12-07T05:23:16;2.20;99.90
56162;DHT22;42045;52.986;6.014;2022-12-07T05:25:42;2.10;99.90
56162;DHT22;42045;52.986;6.014;2022-12-07T05:28:08;2.20;99.90
56162;DHT22;42045;52.986;6.014;2022-12-07T05:30:33;2.20;99.90
56162;DHT22;42045;52.986;6.014;2022-12-07T05:32:59;2.20;99.90
56162;DHT22;42045;52.986;6.014;2022-12-07T05:35:25;2.20;99.90
56162;DHT22;42045;52.986;6.014;2022-12-07T05:37:51;2.40;99.90
56162;DHT22;42045;52.986;6.014;2022-12-07T05:40:16;2.50;99.90
56162;DHT22;42045;52.986;6.014;2022-12-07T05:42:42;2.60;99.90
56162;DHT22;42045;52.986;6.014;2022-12-07T05:45:09;2.60;99.90
56162;DHT22;42045;52.986;6.014;2022-12-07T05:47:36;2.80;99.90
56162;DHT22;42045;52.986;6.014;2022-12-07T05:50:01;2.80;99.90
56162;DHT22;42045;52.986;6.014;2022-12-07T05:52:27;2.80;99.90
56162;DHT22;42045;52.986;6.014;2022-12-07T05:54:52;2.90;99.90
56162;DHT22;42045;52.986;6.014;2022-12-07T05:57:18;2.80;99.90
56162;DHT22;42045;52.986;6.014;2022-12-07T05:59:44;2.90;99.90
56162;DHT22;42045;52.986;6.014;2022-12-07T06:02:12;3.00;99.90
56162;DHT22;42045;52.986;6.014;2022-12-07T06:04:42;3.00;99.90
56162;DHT22;42045;52.986;6.014;2022-12-07T06:07:09;2.90;99.90
56162;DHT22;42045;52.986;6.014;2022-12-07T06:09:35;2.90;99.90
56162;DHT22;42045;52.986;6.014;2022-12-07T06:12:01;2.80;99.90
56162;DHT22;42045;52.986;6.014;2022-12-07T06:14:45;2.80;99.90
56162;DHT22;42045;52.986;6.014;2022-12-07T06:17:12;2.80;99.90
56162;DHT22;42045;52.986;6.014;2022-12-07T06:19:38;2.80;99.90
56162;DHT22;42045;52.986;6.014;2022-12-07T06:22:04;2.70;99.90
56162;DHT22;42045;52.986;6.014;2022-12-07T06:24:31;2.60;99.90
56162;DHT22;42045;52.986;6.014;2022-12-07T06:26:57;2.70;99.90
56162;DHT22;42045;52.986;6.014;2022-12-07T06:29:23;2.60;99.90
56162;DHT22;42045;52.986;6.014;2022-12-07T06:31:49;2.60;99.90
56162;DHT22;42045;52.986;6.014;2022-12-07T06:34:16;2.50;99.90
56162;DHT22;42045;52.986;6.014;2022-12-07T06:36:43;2.50;99.90
56162;DHT22;42045;52.986;6.014;2022-12-07T06:39:08;2.40;99.90
56162;DHT22;42045;52.986;6.014;2022-12-07T06:41:38;2.50;99.90
56162;DHT22;42045;52.986;6.014;2022-12-07T06:44:06;2.40;99.90
56162;DHT22;42045;52.986;6.014;2022-12-07T06:46:32;2.40;99.90
56162;DHT22;42045;52.986;6.014;2022-12-07T06:48:58;2.30;99.90
56162;DHT22;42045;52.986;6.014;2022-12-07T06:51:24;2.30;99.90
56162;DHT22;42045;52.986;6.014;2022-12-07T06:53:49;2.20;99.90
56162;DHT22;42045;52.986;6.014;2022-12-07T06:56:15;2.20;99.90
56162;DHT22;42045;52.986;6.014;2022-12-07T06:58:41;2.10;99.90
56162;DHT22;42045;52.986;6.014;2022-12-07T07:01:14;2.20;99.90
56162;DHT22;42045;52.986;6.014;2022-12-07T07:03:41;2.20;99.90
56162;DHT22;42045;52.986;6.014;2022-12-07T07:06:07;2.10;99.90
56162;DHT22;42045;52.986;6.014;2022-12-07T07:08:34;2.10;99.90
56162;DHT22;42045;52.986;6.014;2022-12-07T07:11:00;2.00;99.90
56162;DHT22;42045;52.986;6.014;2022-12-07T07:13:27;2.10;99.90
56162;DHT22;42045;52.986;6.014;2022-12-07T07:15:53;2.10;99.90
56162;DHT22;42045;52.986;6.014;2022-12-07T07:18:19;2.10;99.90
56162;DHT22;42045;52.986;6.014;2022-12-07T07:20:44;2.20;99.90
56162;DHT22;42045;52.986;6.014;2022-12-07T07:23:10;2.20;99.90
56162;DHT22;42045;52.986;6.014;2022-12-07T07:25:35;2.30;99.90
56162;DHT22;42045;52.986;6.014;2022-12-07T07:28:01;2.20;99.90
56162;DHT22;42045;52.986;6.014;2022-12-07T07:30:27;2.30;99.90
56162;DHT22;42045;52.986;6.014;2022-12-07T07:32:57;2.30;99.90
56162;DHT22;42045;52.986;6.014;2022-12-07T07:35:24;2.20;99.90
56162;DHT22;42045;52.986;6.014;2022-12-07T07:37:50;2.20;99.90
56162;DHT22;42045;52.986;6.014;2022-12-07T07:40:15;2.10;99.90
56162;DHT22;42045;52.986;6.014;2022-12-07T07:42:41;2.10;99.90
56162;DHT22;42045;52.986;6.014;2022-12-07T07:45:07;2.00;99.90
56162;DHT22;42045;52.986;6.014;2022-12-07T07:47:33;2.00;99.90
56162;DHT22;42045;52.986;6.014;2022-12-07T07:49:59;1.90;99.90
56162;DHT22;42045;52.986;6.014;2022-12-07T07:52:25;1.90;99.90
56162;DHT22;42045;52.986;6.014;2022-12-07T07:54:50;1.90;99.90
56162;DHT22;42045;52.986;6.014;2022-12-07T07:57:17;1.90;99.90
56162;DHT22;42045;52.986;6.014;2022-12-07T07:59:42;1.90;99.90
56162;DHT22;42045;52.986;6.014;2022-12-07T08:02:16;1.90;99.90
56162;DHT22;42045;52.986;6.014;2022-12-07T08:04:43;2.00;99.90
56162;DHT22;42045;52.986;6.014;2022-12-07T08:07:09;2.00;99.90
56162;DHT22;42045;52.986;6.014;2022-12-07T08:09:35;2.00;99.90
56162;DHT22;42045;52.986;6.014;2022-12-07T08:12:00;2.10;99.90
56162;DHT22;42045;52.986;6.014;2022-12-07T08:14:27;2.10;99.90
56162;DHT22;42045;52.986;6.014;2022-12-07T08:16:54;2.10;99.90
56162;DHT22;42045;52.986;6.014;2022-12-07T08:19:20;2.10;99.90
56162;DHT22;42045;52.986;6.014;2022-12-07T08:21:45;2.10;99.90
56162;DHT22;42045;52.986;6.014;2022-12-07T08:24:11;2.10;99.90
56162;DHT22;42045;52.986;6.014;2022-12-07T08:26:37;2.10;99.90
56162;DHT22;42045;52.986;6.014;2022-12-07T08:29:03;2.10;99.90
56162;DHT22;42045;52.986;6.014;2022-12-07T08:31:28;2.10;99.90
56162;DHT22;42045;52.986;6.014;2022-12-07T08:33:54;2.20;99.90
56162;DHT22;42045;52.986;6.014;2022-12-07T08:36:20;2.20;99.90
56162;DHT22;42045;52.986;6.014;2022-12-07T08:38:48;2.10;99.90
56162;DHT22;42045;52.986;6.014;2022-12-07T08:41:14;2.10;99.90
56162;DHT22;42045;52.986;6.014;2022-12-07T08:43:40;2.30;99.90
56162;DHT22;42045;52.986;6.014;2022-12-07T08:49:03;2.40;99.90
56162;DHT22;42045;52.986;6.014;2022-12-07T08:51:30;2.50;99.90
56162;DHT22;42045;52.986;6.014;2022-12-07T08:53:56;2.50;99.90
56162;DHT22;42045;52.986;6.014;2022-12-07T08:56:24;2.70;99.90
56162;DHT22;42045;52.986;6.014;2022-12-07T08:58:50;3.00;99.90
56162;DHT22;42045;52.986;6.014;2022-12-07T09:01:17;3.00;99.90
56162;DHT22;42045;52.986;6.014;2022-12-07T09:03:42;3.20;99.90
56162;DHT22;42045;52.986;6.014;2022-12-07T09:06:08;3.30;99.90
56162;DHT22;42045;52.986;6.014;2022-12-07T09:08:40;3.40;99.90
56162;DHT22;42045;52.986;6.014;2022-12-07T09:11:07;3.50;99.90
56162;DHT22;42045;52.986;6.014;2022-12-07T09:13:33;3.40;99.90
56162;DHT22;42045;52.986;6.014;2022-12-07T09:15:58;3.50;99.90
56162;DHT22;42045;52.986;6.014;2022-12-07T09:18:24;3.50;99.90
56162;DHT22;42045;52.986;6.014;2022-12-07T09:20:50;3.50;99.90
56162;DHT22;42045;52.986;6.014;2022-12-07T09:23:16;3.50;99.90
56162;DHT22;42045;52.986;6.014;2022-12-07T09:25:42;3.50;99.90
56162;DHT22;42045;52.986;6.014;2022-12-07T09:28:08;3.40;99.90
56162;DHT22;42045;52.986;6.014;2022-12-07T09:30:34;3.40;99.90
56162;DHT22;42045;52.986;6.014;2022-12-07T09:33:00;3.40;99.90
56162;DHT22;42045;52.986;6.014;2022-12-07T09:35:26;3.30;99.90
56162;DHT22;42045;52.986;6.014;2022-12-07T09:37:52;3.30;99.90
56162;DHT22;42045;52.986;6.014;2022-12-07T09:40:19;3.30;99.90
56162;DHT22;42045;52.986;6.014;2022-12-07T09:42:49;3.30;99.90
56162;DHT22;42045;52.986;6.014;2022-12-07T09:45:38;3.30;99.90
56162;DHT22;42045;52.986;6.014;2022-12-07T09:48:03;3.30;99.90
56162;DHT22;42045;52.986;6.014;2022-12-07T09:50:29;3.40;99.90
56162;DHT22;42045;52.986;6.014;2022-12-07T09:53:09;3.50;99.90
56162;DHT22;42045;52.986;6.014;2022-12-07T09:55:36;3.70;99.90
56162;DHT22;42045;52.986;6.014;2022-12-07T09:58:02;3.90;99.90
56162;DHT22;42045;52.986;6.014;2022-12-07T10:00:29;4.00;99.90
56162;DHT22;42045;52.986;6.014;2022-12-07T10:03:00;4.10;99.90
56162;DHT22;42045;52.986;6.014;2022-12-07T10:05:32;4.20;99.90
56162;DHT22;42045;52.986;6.014;2022-12-07T10:07:59;4.30;99.90
56162;DHT22;42045;52.986;6.014;2022-12-07T10:10:29;4.30;99.90
56162;DHT22;42045;52.986;6.014;2022-12-07T10:15:38;4.40;99.90
56162;DHT22;42045;52.986;6.014;2022-12-07T10:20:42;4.30;99.90
56162;DHT22;42045;52.986;6.014;2022-12-07T10:23:15;4.30;99.90
56162;DHT22;42045;52.986;6.014;2022-12-07T10:25:41;4.30;99.90
56162;DHT22;42045;52.986;6.014;2022-12-07T10:33:37;4.20;99.90
56162;DHT22;42045;52.986;6.014;2022-12-07T10:36:33;4.30;99.90
56162;DHT22;42045;52.986;6.014;2022-12-07T10:39:17;4.30;99.90
56162;DHT22;42045;52.986;6.014;2022-12-07T10:42:19;4.40;99.90
56162;DHT22;42045;52.986;6.014;2022-12-07T10:44:46;4.40;99.90
56162;DHT22;42045;52.986;6.014;2022-12-07T10:47:25;4.50;99.90
56162;DHT22;42045;52.986;6.014;2022-12-07T11:03:46;4.90;99.90
56162;DHT22;42045;52.986;6.014;2022-12-07T11:06:41;4.90;99.90
56162;DHT22;42045;52.986;6.014;2022-12-07T11:12:12;5.00;99.90
56162;DHT22;42045;52.986;6.014;2022-12-07T11:20:59;4.90;99.90
56162;DHT22;42045;52.986;6.014;2022-12-07T11:28:41;4.90;99.90
56162;DHT22;42045;52.986;6.014;2022-12-07T11:31:28;4.90;99.90
56162;DHT22;42045;52.986;6.014;2022-12-07T11:34:15;4.80;99.90
56162;DHT22;42045;52.986;6.014;2022-12-07T11:36:47;4.80;99.90
56162;DHT22;42045;52.986;6.014;2022-12-07T11:39:33;4.80;99.90
56162;DHT22;42045;52.986;6.014;2022-12-07T11:42:09;4.70;99.90
56162;DHT22;42045;52.986;6.014;2022-12-07T11:50:27;4.70;99.90
56162;DHT22;42045;52.986;6.014;2022-12-07T11:53:03;4.80;99.90
56162;DHT22;42045;52.986;6.014;2022-12-07T12:03:52;5.10;99.90
56162;DHT22;42045;52.986;6.014;2022-12-07T12:06:19;5.30;99.90
56162;DHT22;42045;52.986;6.014;2022-12-07T12:08:55;5.30;99.90
56162;DHT22;42045;52.986;6.014;2022-12-07T12:11:38;5.40;99.90
56162;DHT22;42045;52.986;6.014;2022-12-07T12:22:51;5.80;99.90
56162;DHT22;42045;52.986;6.014;2022-12-07T12:25:22;5.90;99.90
56162;DHT22;42045;52.986;6.014;2022-12-07T12:27:50;5.90;99.90
56162;DHT22;42045;52.986;6.014;2022-12-07T12:30:44;5.90;99.90
56162;DHT22;42045;52.986;6.014;2022-12-07T12:33:29;6.00;99.90
56162;DHT22;42045;52.986;6.014;2022-12-07T12:39:07;5.90;99.90
56162;DHT22;42045;52.986;6.014;2022-12-07T12:47:04;5.40;99.90
56162;DHT22;42045;52.986;6.014;2022-12-07T12:57:34;5.40;99.90
56162;DHT22;42045;52.986;6.014;2022-12-07T13:00:21;5.50;99.90
56162;DHT22;42045;52.986;6.014;2022-12-07T13:02:48;5.60;99.90
56162;DHT22;42045;52.986;6.014;2022-12-07T13:05:16;5.60;99.90
56162;DHT22;42045;52.986;6.014;2022-12-07T13:18:03;5.60;99.90
56162;DHT22;42045;52.986;6.014;2022-12-07T13:23:31;5.50;99.90
56162;DHT22;42045;52.986;6.014;2022-12-07T13:26:14;5.40;99.90
56162;DHT22;42045;52.986;6.014;2022-12-07T13:28:47;5.40;99.90
56162;DHT22;42045;52.986;6.014;2022-12-07T13:31:37;5.40;99.90
56162;DHT22;42045;52.986;6.014;2022-12-07T13:34:27;5.30;99.90
56162;DHT22;42045;52.986;6.014;2022-12-07T13:36:51;5.20;99.90
56162;DHT22;42045;52.986;6.014;2022-12-07T13:39:23;5.20;99.90
56162;DHT22;42045;52.986;6.014;2022-12-07T13:41:56;5.20;99.90
56162;DHT22;42045;52.986;6.014;2022-12-07T13:44:24;5.10;99.90
56162;DHT22;42045;52.986;6.014;2022-12-07T13:49:46;5.00;99.90
56162;DHT22;42045;52.986;6.014;2022-12-07T13:52:27;5.00;99.90
56162;DHT22;42045;52.986;6.014;2022-12-07T13:54:58;5.00;99.90
56162;DHT22;42045;52.986;6.014;2022-12-07T13:57:25;4.90;99.90
56162;DHT22;42045;52.986;6.014;2022-12-07T13:59:52;4.90;99.90
56162;DHT22;42045;52.986;6.014;2022-12-07T14:02:29;4.90;99.90
56162;DHT22;42045;52.986;6.014;2022-12-07T14:05:14;4.90;99.90
56162;DHT22;42045;52.986;6.014;2022-12-07T14:07:56;4.90;99.90
56162;DHT22;42045;52.986;6.014;2022-12-07T14:16:03;4.80;99.90
56162;DHT22;42045;52.986;6.014;2022-12-07T14:18:36;4.80;99.90
56162;DHT22;42045;52.986;6.014;2022-12-07T14:23:37;4.70;99.90
56162;DHT22;42045;52.986;6.014;2022-12-07T14:26:20;4.70;99.90
56162;DHT22;42045;52.986;6.014;2022-12-07T14:28:46;4.50;99.90
56162;DHT22;42045;52.986;6.014;2022-12-07T14:31:14;4.40;99.90
56162;DHT22;42045;52.986;6.014;2022-12-07T14:33:40;4.30;99.90
56162;DHT22;42045;52.986;6.014;2022-12-07T14:36:09;4.20;99.90
56162;DHT22;42045;52.986;6.014;2022-12-07T14:38:35;4.20;99.90
56162;DHT22;42045;52.986;6.014;2022-12-07T14:41:00;4.10;99.90
56162;DHT22;42045;52.986;6.014;2022-12-07T14:43:45;4.10;99.90
56162;DHT22;42045;52.986;6.014;2022-12-07T14:46:11;4.10;99.90
56162;DHT22;42045;52.986;6.014;2022-12-07T14:48:36;3.90;99.90
56162;DHT22;42045;52.986;6.014;2022-12-07T14:51:02;3.90;99.90
56162;DHT22;42045;52.986;6.014;2022-12-07T14:53:33;3.80;99.90
56162;DHT22;42045;52.986;6.014;2022-12-07T14:56:00;3.70;99.90
56162;DHT22;42045;52.986;6.014;2022-12-07T14:58:26;3.70;99.90
56162;DHT22;42045;52.986;6.014;2022-12-07T15:00:51;3.60;99.90
56162;DHT22;42045;52.986;6.014;2022-12-07T15:03:17;3.60;99.90
56162;DHT22;42045;52.986;6.014;2022-12-07T15:05:42;3.50;99.90
56162;DHT22;42045;52.986;6.014;2022-12-07T15:08:10;3.40;99.90
56162;DHT22;42045;52.986;6.014;2022-12-07T15:10:36;3.40;99.90
56162;DHT22;42045;52.986;6.014;2022-12-07T15:13:04;3.30;99.90
56162;DHT22;42045;52.986;6.014;2022-12-07T15:15:50;3.30;99.90
56162;DHT22;42045;52.986;6.014;2022-12-07T15:18:17;3.30;99.90
56162;DHT22;42045;52.986;6.014;2022-12-07T15:20:44;3.30;99.90
56162;DHT22;42045;52.986;6.014;2022-12-07T15:23:11;3.20;99.90
56162;DHT22;42045;52.986;6.014;2022-12-07T15:25:39;3.20;99.90
56162;DHT22;42045;52.986;6.014;2022-12-07T15:28:05;3.20;99.90
56162;DHT22;42045;52.986;6.014;2022-12-07T15:30:31;3.20;99.90
56162;DHT22;42045;52.986;6.014;2022-12-07T15:32:56;3.20;99.90
56162;DHT22;42045;52.986;6.014;2022-12-07T15:35:22;3.20;99.90
56162;DHT22;42045;52.986;6.014;2022-12-07T15:37:48;3.20;99.90
56162;DHT22;42045;52.986;6.014;2022-12-07T15:40:13;3.20;99.90
56162;DHT22;42045;52.986;6.014;2022-12-07T15:42:39;3.20;99.90
56162;DHT22;42045;52.986;6.014;2022-12-07T15:45:07;3.20;99.90
56162;DHT22;42045;52.986;6.014;2022-12-07T15:47:43;3.30;99.90
56162;DHT22;42045;52.986;6.014;2022-12-07T15:50:14;3.30;99.90
56162;DHT22;42045;52.986;6.014;2022-12-07T15:52:41;3.30;99.90
56162;DHT22;42045;52.986;6.014;2022-12-07T15:55:07;3.30;99.90
56162;DHT22;42045;52.986;6.014;2022-12-07T15:57:35;3.40;99.90
56162;DHT22;42045;52.986;6.014;2022-12-07T16:00:07;3.40;99.90
56162;DHT22;42045;52.986;6.014;2022-12-07T16:02:33;3.40;99.90
56162;DHT22;42045;52.986;6.014;2022-12-07T16:04:59;3.50;99.90
56162;DHT22;42045;52.986;6.014;2022-12-07T16:07:25;3.50;99.90
56162;DHT22;42045;52.986;6.014;2022-12-07T16:09:51;3.50;99.90
56162;DHT22;42045;52.986;6.014;2022-12-07T16:12:17;3.50;99.90
56162;DHT22;42045;52.986;6.014;2022-12-07T16:14:42;3.50;99.90
56162;DHT22;42045;52.986;6.014;2022-12-07T16:17:08;3.60;99.90
56162;DHT22;42045;52.986;6.014;2022-12-07T16:19:35;3.50;99.90
56162;DHT22;42045;52.986;6.014;2022-12-07T16:22:03;3.50;99.90
56162;DHT22;42045;52.986;6.014;2022-12-07T16:24:30;3.50;99.90
56162;DHT22;42045;52.986;6.014;2022-12-07T16:26:55;3.40;99.90
56162;DHT22;42045;52.986;6.014;2022-12-07T16:29:22;3.40;99.90
56162;DHT22;42045;52.986;6.014;2022-12-07T16:31:48;3.40;99.90
56162;DHT22;42045;52.986;6.014;2022-12-07T16:34:15;3.30;99.90
56162;DHT22;42045;52.986;6.014;2022-12-07T16:36:40;3.30;99.90
56162;DHT22;42045;52.986;6.014;2022-12-07T16:39:06;3.30;99.90
56162;DHT22;42045;52.986;6.014;2022-12-07T16:41:32;3.10;99.90
56162;DHT22;42045;52.986;6.014;2022-12-07T16:44:10;3.10;99.90
56162;DHT22;42045;52.986;6.014;2022-12-07T16:46:36;3.10;99.90
56162;DHT22;42045;52.986;6.014;2022-12-07T16:49:02;3.10;99.90
56162;DHT22;42045;52.986;6.014;2022-12-07T16:51:28;3.10;99.90
56162;DHT22;42045;52.986;6.014;2022-12-07T16:53:54;3.10;99.90
56162;DHT22;42045;52.986;6.014;2022-12-07T16:56:20;3.10;99.90
56162;DHT22;42045;52.986;6.014;2022-12-07T16:58:45;3.00;99.90
56162;DHT22;42045;52.986;6.014;2022-12-07T17:01:19;3.00;99.90
56162;DHT22;42045;52.986;6.014;2022-12-07T17:03:45;2.90;99.90
56162;DHT22;42045;52.986;6.014;2022-12-07T17:06:16;2.90;99.90
56162;DHT22;42045;52.986;6.014;2022-12-07T17:08:42;2.90;99.90
56162;DHT22;42045;52.986;6.014;2022-12-07T17:11:13;2.90;99.90
56162;DHT22;42045;52.986;6.014;2022-12-07T17:13:40;2.90;99.90
56162;DHT22;42045;52.986;6.014;2022-12-07T17:16:24;2.90;99.90
56162;DHT22;42045;52.986;6.014;2022-12-07T17:18:50;2.90;99.90
56162;DHT22;42045;52.986;6.014;2022-12-07T17:21:16;3.00;99.90
56162;DHT22;42045;52.986;6.014;2022-12-07T17:23:42;3.00;99.90
56162;DHT22;42045;52.986;6.014;2022-12-07T17:26:16;3.00;99.90
56162;DHT22;42045;52.986;6.014;2022-12-07T17:28:43;3.00;99.90
56162;DHT22;42045;52.986;6.014;2022-12-07T17:31:12;3.00;99.90
56162;DHT22;42045;52.986;6.014;2022-12-07T17:33:38;3.00;99.90
56162;DHT22;42045;52.986;6.014;2022-12-07T17:36:19;3.00;99.90
56162;DHT22;42045;52.986;6.014;2022-12-07T17:38:45;3.10;99.90
56162;DHT22;42045;52.986;6.014;2022-12-07T17:41:13;3.10;99.90
56162;DHT22;42045;52.986;6.014;2022-12-07T17:44:00;3.10;99.90
56162;DHT22;42045;52.986;6.014;2022-12-07T17:46:26;3.10;99.90
56162;DHT22;42045;52.986;6.014;2022-12-07T17:48:56;3.10;99.90
56162;DHT22;42045;52.986;6.014;2022-12-07T17:51:21;3.10;99.90
56162;DHT22;42045;52.986;6.014;2022-12-07T17:54:06;3.10;99.90
56162;DHT22;42045;52.986;6.014;2022-12-07T17:56:31;3.10;99.90
56162;DHT22;42045;52.986;6.014;2022-12-07T17:58:57;3.10;99.90
56162;DHT22;42045;52.986;6.014;2022-12-07T18:01:22;3.10;99.90
56162;DHT22;42045;52.986;6.014;2022-12-07T18:03:48;3.10;99.90
56162;DHT22;42045;52.986;6.014;2022-12-07T18:06:14;3.10;99.90
56162;DHT22;42045;52.986;6.014;2022-12-07T18:08:39;3.10;99.90
56162;DHT22;42045;52.986;6.014;2022-12-07T18:11:06;3.00;99.90
56162;DHT22;42045;52.986;6.014;2022-12-07T18:13:32;3.00;99.90
56162;DHT22;42045;52.986;6.014;2022-12-07T18:16:19;3.00;99.90
56162;DHT22;42045;52.986;6.014;2022-12-07T18:18:46;3.00;99.90
56162;DHT22;42045;52.986;6.014;2022-12-07T18:21:17;2.90;99.90